createdAt,value
2017-05-13T00:00:32.027Z,12.72
2017-05-13T00:02:58.643Z,13.55
2017-05-13T00:05:25.287Z,11.80
2017-05-13T00:07:51.904Z,11.23
2017-05-13T00:10:18.600Z,12.23
2017-05-13T00:12:45.215Z,10.10
2017-05-13T00:15:11.818Z,9.77
2017-05-13T00:17:38.459Z,10.67
2017-05-13T00:20:05.067Z,11.35
2017-05-13T00:22:31.678Z,10.42
2017-05-13T00:24:58.314Z,10.57
2017-05-13T00:27:24.926Z,10.28
2017-05-13T00:29:51.535Z,12.42
2017-05-13T00:32:18.171Z,19.25
2017-05-13T00:34:44.787Z,12.83
2017-05-13T00:37:11.398Z,11.50
2017-05-13T00:39:38.050Z,12.27
2017-05-13T00:42:04.667Z,11.38
2017-05-13T00:44:31.283Z,13.00
2017-05-13T00:46:57.923Z,15.33
2017-05-13T00:49:24.619Z,13.77
2017-05-13T00:51:51.235Z,11.57
2017-05-13T00:54:17.896Z,13.20
2017-05-13T00:56:44.519Z,14.47
2017-05-13T00:59:11.182Z,11.58
2017-05-13T01:01:37.823Z,14.23
2017-05-13T01:04:04.435Z,13.80
2017-05-13T01:06:31.053Z,12.83
2017-05-13T01:08:57.729Z,13.87
2017-05-13T01:11:24.347Z,14.25
2017-05-13T01:13:50.963Z,15.75
2017-05-13T01:16:17.686Z,14.43
2017-05-13T01:18:44.323Z,16.52
2017-05-13T01:21:10.938Z,16.40
2017-05-13T01:23:37.550Z,15.18
2017-05-13T01:26:04.168Z,13.58
2017-05-13T01:28:30.845Z,14.13
2017-05-13T01:30:57.467Z,10.72
2017-05-13T01:33:24.083Z,10.98
2017-05-13T01:35:50.718Z,12.60
2017-05-13T01:38:17.332Z,15.80
2017-05-13T01:40:43.951Z,12.88
2017-05-13T01:43:10.587Z,13.97
2017-05-13T01:45:37.199Z,13.67
2017-05-13T01:48:03.814Z,14.05
2017-05-13T01:50:30.594Z,13.07
2017-05-13T01:52:57.211Z,12.97
2017-05-13T01:55:23.829Z,16.58
2017-05-13T01:57:50.511Z,11.75
2017-05-13T02:00:17.111Z,15.02
2017-05-13T02:02:43.727Z,18.72
2017-05-13T02:05:10.375Z,14.02
2017-05-13T02:07:36.987Z,12.57
2017-05-13T02:10:03.603Z,12.58
2017-05-13T02:12:30.247Z,11.65
2017-05-13T02:14:56.863Z,12.82
2017-05-13T02:17:23.488Z,13.67
2017-05-13T02:19:50.134Z,13.48
2017-05-13T02:22:16.755Z,16.48
2017-05-13T02:24:43.371Z,16.47
2017-05-13T02:27:10.015Z,14.87
2017-05-13T02:29:36.635Z,14.83
2017-05-13T02:32:03.251Z,14.80
2017-05-13T02:34:29.896Z,16.77
2017-05-13T02:36:56.510Z,15.60
2017-05-13T02:39:23.128Z,14.32
2017-05-13T02:41:49.771Z,15.88
2017-05-13T02:44:16.389Z,14.12
2017-05-13T02:46:43.124Z,15.23
2017-05-13T02:49:09.771Z,13.40
2017-05-13T02:51:36.383Z,14.32
2017-05-13T02:54:03.110Z,16.25
2017-05-13T02:56:29.763Z,15.28
2017-05-13T02:58:56.375Z,12.25
2017-05-13T03:01:22.992Z,14.12
2017-05-13T03:03:49.626Z,13.08
2017-05-13T03:06:16.247Z,14.88
2017-05-13T03:08:42.864Z,14.05
2017-05-13T03:11:09.503Z,13.87
2017-05-13T03:13:36.119Z,12.48
2017-05-13T03:16:02.731Z,11.97
2017-05-13T03:18:29.370Z,16.08
2017-05-13T03:20:55.988Z,13.48
2017-05-13T03:23:22.606Z,12.47
2017-05-13T03:25:49.247Z,12.58
2017-05-13T03:28:15.867Z,11.55
2017-05-13T03:30:42.478Z,11.43
2017-05-13T03:33:09.117Z,14.13
2017-05-13T03:35:35.734Z,15.00
2017-05-13T03:38:02.349Z,15.60
2017-05-13T03:40:28.987Z,17.22
2017-05-13T03:42:55.603Z,15.67
2017-05-13T03:45:22.223Z,17.93
2017-05-13T03:47:48.871Z,16.32
2017-05-13T03:50:15.483Z,14.77
2017-05-13T03:52:42.109Z,14.73
2017-05-13T03:55:08.875Z,14.17
2017-05-13T03:57:35.490Z,18.40
2017-05-13T04:00:02.102Z,13.03
2017-05-13T04:02:29.343Z,13.73
2017-05-13T04:04:55.995Z,13.77
2017-05-13T04:07:22.635Z,13.62
2017-05-13T04:09:49.277Z,15.12
2017-05-13T04:12:15.900Z,15.85
2017-05-13T04:14:42.515Z,12.83
2017-05-13T04:17:09.207Z,13.45
2017-05-13T04:19:35.822Z,11.97
2017-05-13T04:22:02.440Z,13.90
2017-05-13T04:24:29.082Z,12.23
2017-05-13T04:26:55.695Z,13.73
2017-05-13T04:29:22.903Z,13.85
2017-05-13T04:31:50.550Z,15.53
2017-05-13T04:34:18.630Z,12.93
2017-05-13T04:36:46.005Z,12.10
2017-05-13T04:39:15.307Z,12.35
2017-05-13T04:41:43.251Z,12.38
2017-05-13T04:44:10.159Z,13.30
2017-05-13T04:46:36.801Z,12.52
2017-05-13T04:49:03.414Z,17.47
2017-05-13T04:51:30.027Z,13.40
2017-05-13T04:53:57.672Z,14.70
2017-05-13T04:56:24.386Z,12.43
2017-05-13T04:58:51.257Z,10.75
2017-05-13T05:01:18.101Z,12.15
2017-05-13T05:03:44.815Z,12.63
2017-05-13T05:06:11.582Z,13.87
2017-05-13T05:08:38.262Z,10.62
2017-05-13T05:11:04.880Z,10.67
2017-05-13T05:13:31.498Z,12.63
2017-05-13T05:15:58.407Z,10.10
2017-05-13T05:18:27.035Z,9.70
2017-05-13T05:20:53.976Z,9.92
2017-05-13T05:23:21.127Z,10.53
2017-05-13T05:25:49.508Z,10.37
2017-05-13T05:28:16.677Z,10.07
2017-05-13T05:30:43.347Z,9.12
2017-05-13T05:33:10.188Z,10.53
2017-05-13T05:35:36.851Z,10.90
2017-05-13T05:38:03.646Z,9.82
2017-05-13T05:40:30.600Z,10.68
2017-05-13T05:42:59.464Z,11.82
2017-05-13T05:45:26.146Z,9.73
2017-05-13T05:47:56.239Z,7.50
2017-05-13T05:50:23.581Z,9.03
2017-05-13T05:52:52.193Z,9.07
2017-05-13T05:55:18.877Z,8.05
2017-05-13T05:57:45.953Z,7.77
2017-05-13T06:00:12.863Z,8.45
2017-05-13T06:02:39.603Z,6.55
2017-05-13T06:05:06.996Z,7.03
2017-05-13T06:07:33.918Z,7.10
2017-05-13T06:10:00.538Z,7.63
2017-05-13T06:12:28.448Z,7.82
2017-05-13T06:14:55.805Z,7.93
2017-05-13T06:17:23.266Z,8.38
2017-05-13T06:19:49.929Z,8.63
2017-05-13T06:22:17.462Z,7.93
2017-05-13T06:24:44.408Z,6.70
2017-05-13T06:27:11.019Z,9.45
2017-05-13T06:29:38.403Z,9.35
2017-05-13T06:32:05.349Z,16.80
2017-05-13T06:34:32.707Z,6.73
2017-05-13T06:37:00.061Z,7.32
2017-05-13T06:39:27.009Z,6.77
2017-05-13T06:41:54.056Z,6.98
2017-05-13T06:44:21.327Z,6.62
2017-05-13T06:46:53.085Z,6.78
2017-05-13T06:49:21.345Z,5.95
2017-05-13T06:51:53.701Z,8.78
2017-05-13T06:54:23.635Z,8.13
2017-05-13T06:56:51.544Z,5.70
2017-05-13T06:59:19.474Z,6.43
2017-05-13T07:01:47.871Z,13.73
2017-05-13T07:04:15.415Z,5.50
2017-05-13T07:06:43.414Z,5.90
2017-05-13T07:09:12.951Z,5.73
2017-05-13T07:14:15.077Z,5.53
2017-05-13T07:16:41.775Z,5.22
2017-05-13T07:19:09.088Z,6.22
2017-05-13T07:21:36.121Z,6.53
2017-05-13T07:24:04.452Z,5.98
2017-05-13T07:26:32.091Z,4.45
2017-05-13T07:29:01.733Z,4.10
2017-05-13T07:31:28.827Z,4.50
2017-05-13T07:33:57.116Z,4.88
2017-05-13T07:36:25.078Z,5.20
2017-05-13T07:38:53.535Z,6.25
2017-05-13T07:41:23.532Z,4.43
2017-05-13T07:43:50.617Z,4.88
2017-05-13T07:46:18.381Z,4.43
2017-05-13T07:48:46.482Z,5.47
2017-05-13T07:51:13.158Z,5.70
2017-05-13T07:53:39.909Z,6.18
2017-05-13T07:56:06.527Z,6.15
2017-05-13T07:58:33.668Z,5.87
2017-05-13T08:01:00.674Z,6.30
2017-05-13T08:03:27.314Z,6.50
2017-05-13T08:05:54.726Z,7.40
2017-05-13T08:08:21.403Z,5.88
2017-05-13T08:10:48.015Z,6.38
2017-05-13T08:13:15.199Z,6.23
2017-05-13T08:15:42.286Z,5.73
2017-05-13T08:18:08.920Z,6.10
2017-05-13T08:20:36.112Z,5.38
2017-05-13T08:23:02.727Z,6.83
2017-05-13T08:25:29.336Z,4.77
2017-05-13T08:27:56.022Z,6.28
2017-05-13T08:30:23.106Z,6.02
2017-05-13T08:32:50.871Z,5.45
2017-05-13T08:35:17.543Z,10.57
2017-05-13T08:37:44.219Z,7.13
2017-05-13T08:40:11.505Z,5.33
2017-05-13T08:42:38.198Z,5.45
2017-05-13T08:45:06.350Z,10.15
2017-05-13T08:47:34.008Z,5.12
2017-05-13T08:50:00.638Z,6.12
2017-05-13T08:52:27.247Z,6.35
2017-05-13T08:54:58.591Z,6.22
2017-05-13T08:57:25.556Z,4.00
2017-05-13T08:59:52.810Z,6.12
2017-05-13T09:02:20.574Z,8.87
2017-05-13T09:04:50.287Z,5.00
2017-05-13T09:07:16.926Z,4.03
2017-05-13T09:09:43.535Z,4.67
2017-05-13T09:12:10.167Z,5.60
2017-05-13T09:14:36.775Z,4.75
2017-05-13T09:17:03.383Z,4.55
2017-05-13T09:19:30.006Z,4.13
2017-05-13T09:21:56.614Z,6.67
2017-05-13T09:24:23.223Z,5.95
2017-05-13T09:26:49.860Z,4.15
2017-05-13T09:29:16.471Z,3.58
2017-05-13T09:31:43.074Z,4.50
2017-05-13T09:34:09.712Z,3.35
2017-05-13T09:36:36.328Z,5.25
2017-05-13T09:39:02.939Z,5.07
2017-05-13T09:41:29.570Z,4.12
2017-05-13T09:43:56.182Z,10.42
2017-05-13T09:46:22.787Z,3.00
2017-05-13T09:48:49.422Z,2.58
2017-05-13T09:51:16.027Z,6.63
2017-05-13T09:53:42.635Z,3.65
2017-05-13T09:56:09.259Z,6.22
2017-05-13T09:58:35.879Z,2.88
2017-05-13T10:01:02.530Z,4.28
2017-05-13T10:03:29.167Z,4.05
2017-05-13T10:05:55.775Z,3.93
2017-05-13T10:08:22.450Z,5.20
2017-05-13T10:10:49.087Z,1.78
2017-05-13T10:13:15.694Z,3.50
2017-05-13T10:15:42.383Z,3.75
2017-05-13T10:18:09.022Z,3.68
2017-05-13T10:20:35.636Z,3.75
2017-05-13T10:23:02.243Z,2.08
2017-05-13T10:25:28.931Z,2.25
2017-05-13T10:27:55.538Z,2.48
2017-05-13T10:30:22.147Z,3.48
2017-05-13T10:32:49.906Z,3.22
2017-05-13T10:35:16.567Z,4.02
2017-05-13T10:37:43.197Z,6.27
2017-05-13T10:40:09.848Z,1.98
2017-05-13T10:42:36.526Z,2.00
2017-05-13T10:45:03.131Z,2.02
2017-05-13T10:47:30.087Z,1.50
2017-05-13T10:49:56.758Z,5.28
2017-05-13T10:52:23.351Z,2.60
2017-05-13T10:54:49.984Z,2.40
2017-05-13T10:57:16.594Z,3.38
2017-05-13T10:59:43.198Z,1.82
2017-05-13T11:02:09.843Z,19.05
2017-05-13T11:04:36.455Z,2.23
2017-05-13T11:07:03.063Z,5.07
2017-05-13T11:09:29.687Z,2.07
2017-05-13T11:11:56.335Z,12.65
2017-05-13T11:14:22.944Z,1.47
2017-05-13T11:16:49.571Z,6.32
2017-05-13T11:19:16.179Z,6.62
2017-05-13T11:21:42.786Z,2.13
2017-05-13T11:24:09.414Z,1.42
2017-05-13T11:26:36.378Z,0.60
2017-05-13T11:29:05.012Z,9.48
2017-05-13T11:31:32.571Z,6.50
2017-05-13T11:34:00.567Z,1.07
2017-05-13T11:36:27.846Z,5.83
2017-05-13T11:38:55.100Z,6.42
2017-05-13T11:41:21.911Z,19.10
2017-05-13T11:43:48.582Z,4.72
2017-05-13T11:46:16.347Z,1.75
2017-05-13T11:48:43.047Z,1.23
2017-05-13T11:51:09.659Z,2.00
2017-05-13T11:53:36.293Z,5.22
2017-05-13T11:56:02.901Z,3.40
2017-05-13T11:58:29.511Z,7.83
2017-05-13T12:00:56.284Z,3.47
2017-05-13T12:03:24.437Z,6.72
2017-05-13T12:05:51.201Z,10.10
2017-05-13T12:08:19.294Z,12.23
2017-05-13T12:10:45.907Z,15.78
2017-05-13T12:13:12.618Z,31.13
2017-05-13T12:15:39.294Z,7.75
2017-05-13T12:18:05.906Z,11.40
2017-05-13T12:20:32.518Z,2.15
2017-05-13T12:22:59.147Z,3.32
2017-05-13T12:25:25.755Z,2.53
2017-05-13T12:27:52.367Z,3.48
2017-05-13T12:30:19.000Z,5.40
2017-05-13T12:32:45.606Z,3.05
2017-05-13T12:35:12.215Z,3.95
2017-05-13T12:37:38.855Z,2.55
2017-05-13T12:40:05.457Z,2.65
2017-05-13T12:42:32.066Z,6.02
2017-05-13T12:44:58.698Z,4.82
2017-05-13T12:47:25.358Z,3.58
2017-05-13T12:49:51.975Z,19.32
2017-05-13T12:52:18.615Z,13.18
2017-05-13T12:54:45.235Z,12.47
2017-05-13T12:57:11.850Z,10.87
2017-05-13T12:59:38.480Z,8.13
2017-05-13T13:02:05.138Z,4.57
2017-05-13T13:04:31.727Z,3.48
2017-05-13T13:06:58.375Z,15.10
2017-05-13T13:09:26.011Z,3.48
2017-05-13T13:11:52.626Z,2.48
2017-05-13T13:14:19.272Z,2.64
2017-05-13T13:16:45.890Z,1.30
2017-05-13T13:19:12.524Z,3.38
2017-05-13T13:21:39.147Z,4.38
2017-05-13T13:24:05.754Z,1.46
2017-05-13T13:26:32.359Z,8.18
2017-05-13T13:28:58.988Z,9.06
2017-05-13T13:31:25.820Z,2.32
2017-05-13T13:33:52.430Z,6.76
2017-05-13T13:36:19.063Z,1.40
2017-05-13T13:38:45.667Z,2.16
2017-05-13T13:41:12.276Z,3.16
2017-05-13T13:43:38.927Z,1.20
2017-05-13T13:46:05.537Z,1.30
2017-05-13T13:48:32.143Z,3.50
2017-05-13T13:50:58.775Z,2.06
2017-05-13T13:53:25.382Z,2.42
2017-05-13T13:55:51.991Z,1.62
2017-05-13T13:58:18.622Z,5.10
2017-05-13T14:00:45.226Z,4.32
2017-05-13T14:03:11.834Z,3.14
2017-05-13T14:05:38.474Z,2.40
2017-05-13T14:08:05.170Z,2.74
2017-05-13T14:10:31.776Z,1.44
2017-05-13T14:12:58.412Z,5.48
2017-05-13T14:15:25.079Z,1.68
2017-05-13T14:17:51.688Z,0.96
2017-05-13T14:20:18.335Z,28.90
2017-05-13T14:22:44.942Z,2.84
2017-05-13T14:25:11.635Z,3.78
2017-05-13T14:27:38.272Z,1.96
2017-05-13T14:30:04.882Z,12.54
2017-05-13T14:32:31.491Z,6.14
2017-05-13T14:34:58.126Z,6.48
2017-05-13T14:37:24.726Z,4.18
2017-05-13T14:39:51.339Z,3.02
2017-05-13T14:42:17.991Z,0.74
2017-05-13T14:44:44.603Z,3.40
2017-05-13T14:47:11.280Z,3.42
2017-05-13T14:49:37.932Z,1.18
2017-05-13T14:52:04.538Z,3.82
2017-05-13T14:54:31.146Z,1.16
2017-05-13T14:56:57.774Z,6.22
2017-05-13T14:59:24.392Z,15.40
2017-05-13T15:01:51.004Z,2.08
2017-05-13T15:04:17.638Z,1.06
2017-05-13T15:06:44.248Z,3.44
2017-05-13T15:09:10.851Z,4.44
2017-05-13T15:11:37.495Z,0.68
2017-05-13T15:14:04.099Z,1.88
2017-05-13T15:16:30.717Z,1.68
2017-05-13T15:18:57.347Z,0.72
2017-05-13T15:21:23.958Z,1.76
2017-05-13T15:23:50.659Z,1.26
2017-05-13T15:26:17.407Z,1.46
2017-05-13T15:28:44.014Z,5.40
2017-05-13T15:31:10.640Z,6.68
2017-05-13T15:33:37.303Z,4.04
2017-05-13T15:36:03.963Z,2.12
2017-05-13T15:38:30.603Z,22.16
2017-05-13T15:40:57.268Z,2.18
2017-05-13T15:43:23.882Z,2.50
2017-05-13T15:45:50.490Z,1.58
2017-05-13T15:48:17.127Z,0.64
2017-05-13T15:50:43.798Z,10.74
2017-05-13T15:53:10.407Z,2.20
2017-05-13T15:55:37.047Z,6.56
2017-05-13T15:58:03.667Z,12.66
2017-05-13T16:00:30.267Z,0.54
2017-05-13T16:02:56.990Z,0.60
2017-05-13T16:05:23.602Z,0.60
2017-05-13T16:07:50.214Z,1.00
2017-05-13T16:10:16.848Z,2.46
2017-05-13T16:12:43.459Z,0.50
2017-05-13T16:15:10.067Z,5.58
2017-05-13T16:17:36.708Z,10.22
2017-05-13T16:20:03.324Z,6.44
2017-05-13T16:22:29.935Z,1.46
2017-05-13T16:24:56.568Z,1.10
2017-05-13T16:27:23.176Z,2.20
2017-05-13T16:29:49.790Z,1.26
2017-05-13T16:32:16.450Z,1.10
2017-05-13T16:34:43.060Z,0.56
2017-05-13T16:37:09.730Z,5.82
2017-05-13T16:39:36.367Z,2.48
2017-05-13T16:42:03.163Z,2.00
2017-05-13T16:44:29.766Z,1.00
2017-05-13T16:46:56.407Z,1.78
2017-05-13T16:49:23.019Z,0.95
2017-05-13T16:51:49.651Z,2.03
2017-05-13T16:54:16.258Z,1.20
2017-05-13T16:56:42.871Z,2.60
2017-05-13T16:59:09.503Z,4.83
2017-05-13T17:01:36.111Z,1.90
2017-05-13T17:04:02.715Z,3.42
2017-05-13T17:06:29.351Z,1.18
2017-05-13T17:08:55.963Z,0.70
2017-05-13T17:11:22.987Z,0.95
2017-05-13T17:13:49.619Z,0.75
2017-05-13T17:16:16.226Z,1.58
2017-05-13T17:18:42.826Z,0.60
2017-05-13T17:21:09.474Z,1.88
2017-05-13T17:23:36.084Z,2.03
2017-05-13T17:26:02.691Z,4.70
2017-05-13T17:28:29.318Z,2.62
2017-05-13T17:30:55.945Z,1.67
2017-05-13T17:33:22.554Z,3.53
2017-05-13T17:35:49.163Z,2.12
2017-05-13T17:38:15.856Z,1.35
2017-05-13T17:40:42.487Z,3.62
2017-05-13T17:43:09.094Z,2.05
2017-05-13T17:45:35.708Z,4.05
2017-05-13T17:48:02.347Z,2.70
2017-05-13T17:50:28.956Z,1.65
2017-05-13T17:52:55.560Z,2.52
2017-05-13T17:55:22.199Z,3.28
2017-05-13T17:57:48.852Z,2.98
2017-05-13T18:00:15.458Z,4.30
2017-05-13T18:02:42.092Z,3.78
2017-05-13T18:05:08.703Z,2.72
2017-05-13T18:07:35.310Z,1.90
2017-05-13T18:10:01.947Z,2.80
2017-05-13T18:12:28.555Z,2.87
2017-05-13T18:14:55.189Z,5.95
2017-05-13T18:17:21.835Z,3.12
2017-05-13T18:19:48.443Z,2.97
2017-05-13T18:22:15.050Z,5.40
2017-05-13T18:24:41.683Z,3.77
2017-05-13T18:27:08.291Z,4.13
2017-05-13T18:29:34.898Z,3.02
2017-05-13T18:32:01.527Z,3.68
2017-05-13T18:34:28.135Z,2.57
2017-05-13T18:36:54.742Z,3.55
2017-05-13T18:39:21.378Z,2.62
2017-05-13T18:41:47.989Z,1.97
2017-05-13T18:44:14.590Z,4.13
2017-05-13T18:46:41.228Z,1.85
2017-05-13T18:49:07.834Z,1.65
2017-05-13T18:51:34.438Z,3.17
2017-05-13T18:54:01.079Z,2.65
2017-05-13T18:56:27.683Z,1.55
2017-05-13T18:58:54.294Z,2.23
2017-05-13T19:01:20.922Z,2.12
2017-05-13T19:03:47.562Z,2.07
2017-05-13T19:06:14.203Z,2.65
2017-05-13T19:08:40.839Z,1.58
2017-05-13T19:11:07.447Z,5.80
2017-05-13T19:13:34.058Z,3.22
2017-05-13T19:16:00.754Z,2.18
2017-05-13T19:18:27.366Z,3.48
2017-05-13T19:20:54.072Z,2.37
2017-05-13T19:23:20.715Z,5.38
2017-05-13T19:25:47.319Z,3.87
2017-05-13T19:28:13.926Z,4.30
2017-05-13T19:30:40.566Z,3.27
2017-05-13T19:33:07.176Z,2.67
2017-05-13T19:35:33.863Z,3.75
2017-05-13T19:38:00.507Z,4.90
2017-05-13T19:40:27.146Z,4.45
2017-05-13T19:42:53.759Z,4.70
2017-05-13T19:45:20.390Z,6.83
2017-05-13T19:47:46.998Z,3.87
2017-05-13T19:50:13.606Z,4.53
2017-05-13T19:52:40.239Z,5.65
2017-05-13T19:55:06.851Z,3.80
2017-05-13T19:57:33.456Z,7.52
2017-05-13T20:00:00.098Z,5.52
2017-05-13T20:02:26.707Z,5.08
2017-05-13T20:04:53.330Z,5.45
2017-05-13T20:07:19.971Z,3.47
2017-05-13T20:09:46.574Z,2.97
2017-05-13T20:12:13.183Z,5.40
2017-05-13T20:14:39.882Z,4.62
2017-05-13T20:17:06.490Z,4.62
2017-05-13T20:19:33.163Z,5.95
2017-05-13T20:21:59.803Z,4.58
2017-05-13T20:24:26.480Z,5.50
2017-05-13T20:26:53.183Z,5.52
2017-05-13T20:29:19.927Z,5.67
2017-05-13T20:31:46.530Z,4.63
2017-05-13T20:34:15.028Z,4.83
2017-05-13T20:36:39.791Z,4.07
2017-05-13T20:39:06.417Z,4.30
2017-05-13T20:41:33.128Z,8.98
2017-05-13T20:43:59.763Z,3.82
2017-05-13T20:46:26.375Z,4.50
2017-05-13T20:48:52.979Z,3.25
2017-05-13T20:51:19.614Z,4.32
2017-05-13T20:53:46.224Z,6.53
2017-05-13T20:56:12.831Z,3.95
2017-05-13T20:58:39.463Z,5.40
2017-05-13T21:01:06.071Z,3.52
2017-05-13T21:03:32.679Z,4.42
2017-05-13T21:05:59.287Z,3.08
2017-05-13T21:08:25.896Z,3.12
2017-05-13T21:10:52.527Z,3.57
2017-05-13T21:13:19.142Z,3.85
2017-05-13T21:15:45.867Z,3.30
2017-05-13T21:18:12.499Z,3.62
2017-05-13T21:20:39.106Z,3.68
2017-05-13T21:23:05.715Z,3.67
2017-05-13T21:25:32.348Z,5.65
2017-05-13T21:27:58.950Z,5.83
2017-05-13T21:30:25.558Z,4.30
2017-05-13T21:32:52.188Z,5.17
2017-05-13T21:35:18.867Z,4.22
2017-05-13T21:37:51.367Z,4.48
2017-05-13T21:40:17.988Z,3.73
2017-05-13T21:42:44.600Z,4.22
2017-05-13T21:45:11.306Z,4.97
2017-05-13T21:47:37.906Z,4.72
2017-05-13T21:50:04.514Z,4.52
2017-05-13T21:52:31.151Z,5.23
2017-05-13T21:54:57.759Z,5.25
2017-05-13T21:57:24.367Z,5.00
2017-05-13T21:59:50.998Z,5.88
2017-05-13T22:02:17.607Z,5.48
2017-05-13T22:04:44.219Z,4.27
2017-05-13T22:07:10.848Z,4.80
2017-05-13T22:09:37.459Z,4.38
2017-05-13T22:12:04.070Z,4.67
2017-05-13T22:14:30.715Z,7.70
2017-05-13T22:16:57.323Z,5.82
2017-05-13T22:19:23.931Z,8.63
2017-05-13T22:21:50.581Z,6.30
2017-05-13T22:24:17.195Z,4.42
2017-05-13T22:26:43.803Z,6.48
2017-05-13T22:29:10.434Z,7.52
2017-05-13T22:31:37.099Z,7.08
2017-05-13T22:34:03.735Z,6.17
2017-05-13T22:36:30.367Z,6.20
2017-05-13T22:38:56.979Z,8.45
2017-05-13T22:41:23.659Z,11.72
2017-05-13T22:43:50.307Z,6.67
2017-05-13T22:46:16.920Z,6.70
2017-05-13T22:48:43.528Z,6.97
2017-05-13T22:51:10.155Z,6.25
2017-05-13T22:53:36.768Z,17.48
2017-05-13T22:56:03.370Z,6.22
2017-05-13T22:58:30.003Z,6.55
2017-05-13T23:00:56.611Z,9.18
2017-05-13T23:03:23.222Z,12.32
2017-05-13T23:05:49.835Z,10.83
2017-05-13T23:08:16.447Z,10.07
2017-05-13T23:10:43.087Z,8.92
2017-05-13T23:13:09.758Z,6.77
2017-05-13T23:15:36.398Z,6.62
2017-05-13T23:18:03.134Z,5.65
2017-05-13T23:20:29.738Z,6.95
2017-05-13T23:22:56.347Z,6.23
2017-05-13T23:25:22.974Z,8.22
2017-05-13T23:27:49.630Z,8.27
2017-05-13T23:30:16.239Z,7.08
2017-05-13T23:32:42.871Z,5.87
2017-05-13T23:35:09.479Z,5.70
2017-05-13T23:37:36.087Z,4.83
2017-05-13T23:40:02.721Z,6.33
2017-05-13T23:42:29.324Z,7.83
2017-05-13T23:44:55.935Z,5.97
2017-05-13T23:47:22.575Z,5.70
2017-05-13T23:49:49.191Z,5.10
2017-05-13T23:52:15.800Z,4.83
2017-05-13T23:54:42.436Z,5.08
2017-05-13T23:57:09.043Z,4.22
2017-05-13T23:59:35.661Z,5.63
